Time;durP1;ratioP1;P1;durP2;ratioP2;P2;SDS_P1;SDS_P2;PMS_P1;PMS_P2;Temp;Humidity;BMP_temperature;BMP_pressure;BME280_temperature;BME280_humidity;BME280_pressure;Samples;Min_cycle;Max_cycle;Signal;HPM_P1;HPM_P2
2024/02/16 00:01:49;;;;;;;7.60;3.35;;;;;;;5.43;100.00;92930.06;5054568;28;20123;-78
2024/02/16 00:04:15;;;;;;;6.07;3.20;;;;;;;5.39;100.00;92931.56;5050959;28;20045;-78
2024/02/16 00:06:40;;;;;;;5.70;3.00;;;;;;;5.36;100.00;92926.88;5051671;28;20040;-78
2024/02/16 00:09:07;;;;;;;6.47;3.40;;;;;;;5.30;100.00;92920.03;5051352;28;20403;-78
2024/02/16 00:11:33;;;;;;;6.35;3.30;;;;;;;5.26;100.00;92918.94;5041366;28;20123;-78
2024/02/16 00:13:58;;;;;;;6.22;3.50;;;;;;;5.19;100.00;92919.13;5030346;28;20506;-78
2024/02/16 00:16:24;;;;;;;6.07;3.53;;;;;;;5.17;100.00;92921.19;5063114;28;20090;-77
2024/02/16 00:18:49;;;;;;;5.88;2.90;;;;;;;5.12;100.00;92921.91;5057396;28;20040;-78
2024/02/16 00:21:16;;;;;;;6.20;3.40;;;;;;;5.08;100.00;92915.63;5047387;28;20040;-78
2024/02/16 00:23:42;;;;;;;5.78;3.17;;;;;;;5.07;100.00;92918.47;5055356;28;20045;-78
2024/02/16 00:26:08;;;;;;;7.28;3.30;;;;;;;5.06;100.00;92916.88;5052380;28;20052;-77
2024/02/16 00:28:33;;;;;;;5.32;3.08;;;;;;;5.06;100.00;92916.88;5039192;28;20085;-78
2024/02/16 00:30:59;;;;;;;6.57;3.30;;;;;;;5.05;100.00;92918.72;5039651;28;20039;-77
2024/02/16 00:33:24;;;;;;;5.85;3.25;;;;;;;5.02;100.00;92911.38;5055011;28;20032;-78
2024/02/16 00:35:50;;;;;;;8.38;3.63;;;;;;;5.00;100.00;92913.47;5044354;28;20385;-77
2024/02/16 00:38:16;;;;;;;5.85;3.30;;;;;;;4.98;100.00;92908.50;5049322;28;20124;-77
2024/02/16 00:40:43;;;;;;;7.40;3.55;;;;;;;4.99;100.00;92904.09;5062492;28;20111;-78
2024/02/16 00:43:09;;;;;;;5.57;2.97;;;;;;;4.99;100.00;92909.28;5052626;28;20106;-77
2024/02/16 00:45:35;;;;;;;5.57;3.30;;;;;;;4.97;100.00;92906.16;5048689;28;20032;-77
2024/02/16 00:48:01;;;;;;;5.43;3.10;;;;;;;4.96;100.00;92902.00;5057908;28;20052;-78
2024/02/16 00:50:28;;;;;;;6.65;3.13;;;;;;;4.94;100.00;92912.59;5048046;28;20062;-77
2024/02/16 00:52:54;;;;;;;6.70;3.65;;;;;;;4.94;100.00;92904.03;5049082;28;20420;-78
2024/02/16 00:55:20;;;;;;;5.47;2.92;;;;;;;4.93;100.00;92905.84;5049014;28;20033;-76
2024/02/16 00:57:45;;;;;;;5.57;3.17;;;;;;;4.92;100.00;92898.31;5046001;28;20561;-77
2024/02/16 01:00:11;;;;;;;6.35;3.35;;;;;;;4.85;100.00;92895.09;5031681;28;20484;-78
2024/02/16 01:02:37;;;;;;;7.28;3.33;;;;;;;4.85;100.00;92897.69;5048760;28;20041;-77
2024/02/16 01:05:03;;;;;;;7.18;3.25;;;;;;;4.84;100.00;92896.13;5055373;28;20036;-77
2024/02/16 01:07:29;;;;;;;6.22;3.22;;;;;;;4.82;100.00;92904.16;5028383;28;20033;-77
2024/02/16 01:09:56;;;;;;;5.53;2.67;;;;;;;4.82;100.00;92892.97;5055100;28;20043;-77
2024/02/16 01:12:22;;;;;;;5.78;2.80;;;;;;;4.82;100.00;92896.38;5060431;28;20036;-78
2024/02/16 01:14:47;;;;;;;5.43;2.90;;;;;;;4.82;100.00;92895.56;5051835;28;20081;-78
2024/02/16 01:17:13;;;;;;;5.90;3.30;;;;;;;4.82;100.00;92893.78;5052406;28;20033;-77
2024/02/16 01:19:40;;;;;;;6.50;2.95;;;;;;;4.80;100.00;92901.03;5049295;28;20122;-77
2024/02/16 01:22:05;;;;;;;7.85;3.10;;;;;;;4.79;100.00;92892.44;5055126;28;20427;-78
2024/02/16 01:24:31;;;;;;;5.63;2.97;;;;;;;4.78;100.00;92892.69;5041931;28;20056;-77
2024/02/16 01:26:58;;;;;;;6.03;3.10;;;;;;;4.78;100.00;92898.66;5053316;28;20071;-78
2024/02/16 01:29:23;;;;;;;5.53;2.95;;;;;;;4.75;100.00;92888.78;5038441;28;20114;-77
2024/02/16 01:31:49;;;;;;;6.43;2.97;;;;;;;4.73;100.00;92901.19;5053266;28;20534;-76
2024/02/16 01:34:14;;;;;;;5.63;3.10;;;;;;;4.71;100.00;92899.88;5051122;28;20052;-78
2024/02/16 01:36:40;;;;;;;7.63;3.15;;;;;;;4.70;100.00;92893.88;5051656;28;20039;-77
2024/02/16 01:39:06;;;;;;;4.78;2.90;;;;;;;4.67;100.00;92888.41;5049749;28;20511;-78
2024/02/16 01:41:33;;;;;;;5.30;3.20;;;;;;;4.68;100.00;92892.53;5045015;28;20040;-77
2024/02/16 01:43:58;;;;;;;6.07;3.10;;;;;;;4.65;100.00;92888.63;5056186;28;20036;-77
2024/02/16 01:46:26;;;;;;;6.65;3.10;;;;;;;4.66;100.00;92881.63;5041710;28;20391;-77
2024/02/16 01:48:52;;;;;;;6.97;3.10;;;;;;;4.65;100.00;92878.25;5048024;28;20036;-78
2024/02/16 01:51:18;;;;;;;5.25;3.00;;;;;;;4.65;100.00;92877.47;5056522;28;20040;-76
2024/02/16 01:53:45;;;;;;;6.05;3.35;;;;;;;4.64;100.00;92879.28;5055479;28;20029;-77
2024/02/16 01:56:12;;;;;;;6.68;2.83;;;;;;;4.65;100.00;92874.88;5052867;28;20120;-77
2024/02/16 01:58:38;;;;;;;7.97;2.80;;;;;;;4.63;100.00;92869.94;5029935;28;20116;-78
2024/02/16 02:01:04;;;;;;;3.92;2.30;;;;;;;4.62;100.00;92878.75;5055214;28;20071;-78
2024/02/16 02:03:29;;;;;;;6.15;2.42;;;;;;;4.62;100.00;92873.56;5049627;28;20037;-77
2024/02/16 02:05:56;;;;;;;6.25;2.53;;;;;;;4.61;100.00;92869.38;5051030;28;20084;-77
2024/02/16 02:08:21;;;;;;;4.72;2.38;;;;;;;4.61;100.00;92873.78;5032915;28;20040;-78
2024/02/16 02:10:47;;;;;;;4.38;2.50;;;;;;;4.62;100.00;92873.56;5044906;28;20116;-77
2024/02/16 02:13:13;;;;;;;5.03;2.35;;;;;;;4.63;100.00;92874.34;5040608;28;20066;-77
2024/02/16 02:15:38;;;;;;;4.20;2.10;;;;;;;4.63;100.00;92863.97;5042581;28;20067;-77
2024/02/16 02:18:04;;;;;;;4.47;2.30;;;;;;;4.62;100.00;92863.19;5047463;28;20025;-77
2024/02/16 02:20:29;;;;;;;7.00;2.67;;;;;;;4.63;100.00;92859.56;5053547;28;20037;-77
2024/02/16 02:22:55;;;;;;;5.32;2.90;;;;;;;4.69;100.00;92863.78;5043112;28;20037;-77
2024/02/16 02:25:21;;;;;;;4.75;2.38;;;;;;;4.73;100.00;92861.50;5035621;28;20427;-77
2024/02/16 02:27:47;;;;;;;5.15;2.75;;;;;;;4.77;100.00;92860.78;5038071;28;20032;-78
2024/02/16 02:30:12;;;;;;;6.38;2.78;;;;;;;4.78;100.00;92859.75;5031674;28;20394;-78
2024/02/16 02:32:38;;;;;;;6.32;2.90;;;;;;;4.77;100.00;92853.00;5050205;28;20041;-77
2024/02/16 02:35:05;;;;;;;6.22;2.90;;;;;;;4.77;100.00;92858.19;5052469;28;20539;-77
2024/02/16 02:37:31;;;;;;;6.05;2.95;;;;;;;4.76;100.00;92851.41;5051452;28;20029;-78
2024/02/16 02:39:56;;;;;;;5.10;2.55;;;;;;;4.76;100.00;92848.81;5061166;28;20586;-77
2024/02/16 02:42:22;;;;;;;3.70;2.15;;;;;;;4.76;100.00;92841.03;5060467;28;20552;-78
2024/02/16 02:44:50;;;;;;;4.63;2.20;;;;;;;4.79;100.00;92840.56;5044330;28;20033;-77
2024/02/16 02:47:16;;;;;;;4.97;2.20;;;;;;;4.79;100.00;92837.19;5026320;28;20135;-78
2024/02/16 02:49:43;;;;;;;5.13;2.33;;;;;;;4.78;100.00;92836.41;5059026;28;20028;-78
2024/02/16 02:52:09;;;;;;;3.78;2.20;;;;;;;4.79;100.00;92843.16;5052111;28;20530;-78
2024/02/16 02:54:34;;;;;;;4.88;2.10;;;;;;;4.80;100.00;92839.53;5043846;28;20040;-78
2024/02/16 02:57:01;;;;;;;4.07;1.92;;;;;;;4.80;100.00;92842.13;5051604;28;20068;-78
2024/02/16 02:59:27;;;;;;;3.63;1.98;;;;;;;4.78;100.00;92831.22;5050664;28;20033;-78
2024/02/16 03:01:53;;;;;;;4.93;2.75;;;;;;;4.79;100.00;92827.59;5051850;28;20561;-78
2024/02/16 03:04:18;;;;;;;5.75;3.10;;;;;;;4.83;100.00;92830.50;5054624;28;20064;-78
2024/02/16 03:06:46;;;;;;;5.57;2.83;;;;;;;4.82;100.00;92822.94;5048999;28;20110;-78
2024/02/16 03:09:12;;;;;;;5.47;3.00;;;;;;;4.79;100.00;92825.00;5058336;28;20033;-78
2024/02/16 03:11:38;;;;;;;7.65;3.72;;;;;;;4.78;100.00;92826.03;5053266;28;20119;-78
2024/02/16 03:14:05;;;;;;;7.05;3.70;;;;;;;4.79;100.00;92826.81;5035729;28;20472;-78
2024/02/16 03:16:31;;;;;;;9.52;4.80;;;;;;;4.75;100.00;92817.94;5049971;28;20404;-77
2024/02/16 03:18:57;;;;;;;7.47;4.35;;;;;;;4.82;100.00;92830.72;5050474;28;20464;-78
2024/02/16 03:21:22;;;;;;;8.75;4.22;;;;;;;4.82;100.00;92834.13;5052083;28;20033;-78
2024/02/16 03:23:48;;;;;;;7.07;4.40;;;;;;;4.84;100.00;92826.09;5060261;28;20068;-78
2024/02/16 03:26:18;;;;;;;9.65;4.38;;;;;;;4.84;100.00;92826.88;5052509;28;20048;-77
2024/02/16 03:28:47;;;;;;;8.25;4.18;;;;;;;4.83;100.00;92822.72;5050664;28;20179;-77
2024/02/16 03:31:22;;;;;;;9.77;4.32;;;;;;;4.81;100.00;92827.34;5055997;28;20134;-78
2024/02/16 03:33:48;;;;;;;7.07;4.00;;;;;;;4.77;100.00;92819.28;5056786;28;20115;-77
2024/02/16 03:36:15;;;;;;;7.40;4.15;;;;;;;4.78;100.00;92822.66;5059090;28;20079;-77
2024/02/16 03:38:44;;;;;;;9.68;3.85;;;;;;;4.75;100.00;92821.34;5056397;28;20028;-77
2024/02/16 03:41:14;;;;;;;7.20;4.35;;;;;;;4.77;100.00;92824.47;5056779;28;20037;-77
2024/02/16 03:43:40;;;;;;;8.02;4.20;;;;;;;4.76;100.00;92822.88;5050407;28;20427;-77
2024/02/16 03:46:05;;;;;;;6.68;3.50;;;;;;;4.76;100.00;92816.94;5045701;28;20030;-78
2024/02/16 03:48:31;;;;;;;6.28;3.45;;;;;;;4.73;100.00;92820.00;5051125;28;20495;-77
2024/02/16 03:50:57;;;;;;;5.20;3.20;;;;;;;4.76;100.00;92819.53;5050351;28;20041;-77
2024/02/16 03:53:23;;;;;;;6.35;3.10;;;;;;;4.76;100.00;92816.94;5050582;28;20021;-78
2024/02/16 03:55:49;;;;;;;6.30;2.90;;;;;;;4.76;100.00;92822.88;5033021;28;20037;-77
2024/02/16 03:58:14;;;;;;;4.95;2.85;;;;;;;4.76;100.00;92817.69;5057680;28;20055;-77
2024/02/16 04:00:40;;;;;;;5.75;3.00;;;;;;;4.74;100.00;92817.16;5054923;28;20321;-77
2024/02/16 04:03:05;;;;;;;6.22;3.22;;;;;;;4.74;100.00;92816.38;5050791;28;20603;-77
2024/02/16 04:05:33;;;;;;;6.45;3.00;;;;;;;4.72;100.00;92816.63;5057919;28;20086;-77
2024/02/16 04:08:03;;;;;;;6.22;3.55;;;;;;;4.73;100.00;92820.78;5058373;28;20071;-77
2024/02/16 04:10:29;;;;;;;6.65;3.60;;;;;;;4.72;100.00;92811.44;5045975;28;20041;-78
2024/02/16 04:12:55;;;;;;;6.85;4.07;;;;;;;4.73;100.00;92815.59;5052901;28;20422;-78
2024/02/16 04:15:20;;;;;;;10.75;3.97;;;;;;;4.74;100.00;92817.16;5053917;28;20037;-77
2024/02/16 04:17:46;;;;;;;5.90;3.58;;;;;;;4.76;100.00;92812.50;5036743;28;20089;-77
2024/02/16 04:20:11;;;;;;;10.52;4.18;;;;;;;4.77;100.00;92808.91;5036727;28;20465;-78
2024/02/16 04:22:37;;;;;;;7.35;4.13;;;;;;;4.77;100.00;92814.09;5055831;28;20127;-78
2024/02/16 04:25:04;;;;;;;8.63;4.07;;;;;;;4.77;100.00;92808.91;5058820;28;20068;-77
2024/02/16 04:27:30;;;;;;;6.63;3.72;;;;;;;4.77;100.00;92805.50;5041010;28;20264;-77
2024/02/16 04:29:56;;;;;;;7.18;3.70;;;;;;;4.76;100.00;92809.91;5063059;28;20031;-77
2024/02/16 04:32:21;;;;;;;8.00;3.70;;;;;;;4.74;100.00;92809.38;5050183;28;20111;-78
2024/02/16 04:34:47;;;;;;;6.05;3.15;;;;;;;4.74;100.00;92808.59;5051014;28;20040;-78
2024/02/16 04:37:18;;;;;;;8.43;3.05;;;;;;;4.72;100.00;92806.25;5050494;28;20021;-78
2024/02/16 04:39:44;;;;;;;5.22;2.88;;;;;;;4.72;100.00;92805.47;5057723;28;20337;-78
2024/02/16 04:42:11;;;;;;;5.72;2.95;;;;;;;4.71;100.00;92801.31;5056888;28;20068;-78
2024/02/16 04:44:38;;;;;;;5.30;2.83;;;;;;;4.71;100.00;92806.50;5055710;28;20036;-77
2024/02/16 04:47:04;;;;;;;5.50;3.10;;;;;;;4.68;100.00;92807.75;5058013;28;20294;-78
2024/02/16 04:49:30;;;;;;;6.35;3.00;;;;;;;4.66;100.00;92806.41;5052956;28;20044;-77
2024/02/16 04:51:56;;;;;;;6.07;2.95;;;;;;;4.65;100.00;92805.63;5046926;28;20020;-77
2024/02/16 04:54:22;;;;;;;6.28;2.83;;;;;;;4.64;100.00;92804.09;5057504;28;20066;-78
2024/02/16 04:56:48;;;;;;;5.40;2.45;;;;;;;4.65;100.00;92808.25;5033216;28;20045;-78
2024/02/16 04:59:17;;;;;;;5.95;3.10;;;;;;;4.62;100.00;92806.13;5060370;28;20131;-77
2024/02/16 05:01:44;;;;;;;7.25;3.45;;;;;;;4.61;100.00;92801.19;5056419;28;20043;-77
2024/02/16 05:04:12;;;;;;;6.93;3.22;;;;;;;4.59;100.00;92796.22;5050361;28;20488;-77
2024/02/16 05:06:40;;;;;;;6.95;3.40;;;;;;;4.58;100.00;92797.25;5059390;28;20442;-77
2024/02/16 05:09:06;;;;;;;7.03;3.00;;;;;;;4.55;100.00;92806.31;5034548;28;20520;-78
2024/02/16 05:11:32;;;;;;;8.35;3.78;;;;;;;4.50;100.00;92803.66;5039654;28;20067;-77
2024/02/16 05:13:58;;;;;;;6.18;3.55;;;;;;;4.46;100.00;92807.75;5049932;28;20037;-78
2024/02/16 05:16:24;;;;;;;10.02;3.95;;;;;;;4.42;100.00;92801.47;5049362;28;20027;-77
2024/02/16 05:18:50;;;;;;;6.88;3.85;;;;;;;4.39;100.00;92807.16;5058289;28;20036;-77
2024/02/16 05:21:16;;;;;;;8.75;4.70;;;;;;;4.36;100.00;92798.03;5047574;28;20056;-78
2024/02/16 05:23:41;;;;;;;8.38;4.35;;;;;;;4.35;100.00;92801.66;5057222;28;20028;-77
2024/02/16 05:26:07;;;;;;;9.18;4.60;;;;;;;4.34;100.00;92797.47;5047465;28;20571;-77
2024/02/16 05:28:33;;;;;;;7.78;4.30;;;;;;;4.32;100.00;92791.78;5048127;28;20040;-77
2024/02/16 05:31:12;;;;;;;9.38;4.30;;;;;;;4.30;100.00;92801.59;5048141;28;20036;-77
2024/02/16 05:33:38;;;;;;;9.43;4.38;;;;;;;4.28;100.00;92797.66;5049864;28;20036;-77
2024/02/16 05:36:03;;;;;;;7.20;4.20;;;;;;;4.24;100.00;92805.13;5045749;28;20033;-77
2024/02/16 05:38:34;;;;;;;8.15;4.43;;;;;;;4.24;100.00;92805.13;5054133;28;20039;-77
2024/02/16 05:41:00;;;;;;;8.60;4.03;;;;;;;4.21;100.00;92799.63;5056748;28;20037;-77
2024/02/16 05:43:26;;;;;;;7.72;4.60;;;;;;;4.17;100.00;92794.16;5056446;28;20122;-78
2024/02/16 05:45:51;;;;;;;6.47;3.78;;;;;;;4.15;100.00;92798.78;5047560;28;20059;-78
2024/02/16 05:48:17;;;;;;;7.18;3.90;;;;;;;4.09;100.00;92797.94;5030368;28;20076;-76
2024/02/16 05:50:44;;;;;;;7.90;4.38;;;;;;;4.06;100.00;92797.63;5037116;28;20033;-77
2024/02/16 05:53:10;;;;;;;10.30;4.45;;;;;;;4.03;100.00;92790.31;5047683;28;20044;-77
2024/02/16 05:55:36;;;;;;;9.45;4.60;;;;;;;4.00;100.00;92794.19;5048375;28;20045;-78
2024/02/16 05:58:04;;;;;;;9.90;4.88;;;;;;;3.94;100.00;92785.56;5053895;28;20591;-78
2024/02/16 06:00:33;;;;;;;9.88;4.40;;;;;;;3.95;100.00;92791.53;5038270;28;20033;-78
2024/02/16 06:02:59;;;;;;;11.20;4.65;;;;;;;3.92;100.00;92787.59;5054997;28;20040;-77
2024/02/16 06:05:24;;;;;;;9.38;5.45;;;;;;;3.91;100.00;92796.38;5056460;28;20040;-78
2024/02/16 06:07:50;;;;;;;9.30;4.68;;;;;;;3.90;100.00;92794.03;5053401;28;20057;-78
2024/02/16 06:10:15;;;;;;;8.77;4.70;;;;;;;3.88;100.00;92798.69;5055388;28;20043;-77
2024/02/16 06:12:41;;;;;;;9.05;4.70;;;;;;;3.85;100.00;92802.53;5039124;28;20512;-77
2024/02/16 06:15:07;;;;;;;9.65;4.50;;;;;;;3.84;100.00;92800.94;5055244;28;20028;-78
2024/02/16 06:17:33;;;;;;;7.88;4.03;;;;;;;3.87;100.00;92799.69;5047702;28;20040;-78
2024/02/16 06:19:58;;;;;;;8.20;4.40;;;;;;;3.86;100.00;92806.66;5057548;28;20119;-78
2024/02/16 06:22:24;;;;;;;7.35;3.90;;;;;;;3.84;100.00;92803.53;5056811;28;20044;-77
2024/02/16 06:24:50;;;;;;;7.47;3.60;;;;;;;3.84;100.00;92815.69;5037602;28;20778;-78
2024/02/16 06:27:15;;;;;;;7.30;3.75;;;;;;;3.84;100.00;92813.88;5048080;28;20093;-77
2024/02/16 06:29:41;;;;;;;7.22;3.63;;;;;;;3.83;100.00;92819.28;5045906;28;20124;-77
2024/02/16 06:32:07;;;;;;;8.73;3.85;;;;;;;3.85;100.00;92818.06;5050265;28;20464;-78
2024/02/16 06:34:33;;;;;;;10.60;4.18;;;;;;;3.88;100.00;92827.16;5053008;28;20092;-78
2024/02/16 06:36:59;;;;;;;7.47;3.70;;;;;;;3.91;100.00;92827.47;5046899;28;20111;-78
2024/02/16 06:39:24;;;;;;;6.43;3.50;;;;;;;3.97;100.00;92825.75;5031632;28;20033;-77
2024/02/16 06:41:50;;;;;;;5.55;3.30;;;;;;;4.05;100.00;92832.31;5047360;28;20033;-77
2024/02/16 06:44:16;;;;;;;8.98;3.67;;;;;;;4.17;100.00;92831.22;5049747;28;20036;-78
2024/02/16 06:46:44;;;;;;;6.53;3.28;;;;;;;4.26;100.00;92829.00;5047468;28;20439;-78
2024/02/16 06:49:10;;;;;;;6.90;3.47;;;;;;;4.32;100.00;92828.06;5046815;28;20075;-78
2024/02/16 06:51:37;;;;;;;5.88;3.28;;;;;;;4.43;100.00;92830.78;5047628;28;20033;-79
2024/02/16 06:54:03;;;;;;;6.88;3.70;;;;;;;4.56;100.00;92822.66;5052469;28;20037;-80
2024/02/16 06:56:30;;;;;;;8.88;3.55;;;;;;;4.87;100.00;92833.41;5053709;28;20052;-79
2024/02/16 06:58:56;;;;;;;9.60;4.15;;;;;;;5.22;100.00;92838.97;5036655;28;20037;-80
2024/02/16 07:01:22;;;;;;;6.90;3.47;;;;;;;5.41;100.00;92838.63;5039482;28;20048;-77
2024/02/16 07:03:48;;;;;;;6.03;3.00;;;;;;;5.63;100.00;92839.34;5032289;28;20032;-77
2024/02/16 07:06:14;;;;;;;5.07;2.72;;;;;;;5.81;100.00;92833.00;5024973;28;20048;-79
2024/02/16 07:08:40;;;;;;;5.35;2.58;;;;;;;6.12;100.00;92833.25;5071303;28;20116;-77
2024/02/16 07:11:06;;;;;;;4.40;2.30;;;;;;;6.45;100.00;92834.00;5067924;28;20040;-78
2024/02/16 07:13:33;;;;;;;4.53;2.28;;;;;;;7.00;100.00;92837.91;5052174;28;20484;-78
2024/02/16 07:15:59;;;;;;;6.50;2.88;;;;;;;7.79;100.00;92843.00;5050309;28;20041;-79
2024/02/16 07:18:24;;;;;;;5.30;2.90;;;;;;;8.49;95.29;92836.22;5054701;28;20036;-78
2024/02/16 07:20:50;;;;;;;5.57;2.80;;;;;;;9.25;89.26;92841.44;5055711;28;20111;-79
2024/02/16 07:23:15;;;;;;;7.30;2.88;;;;;;;9.82;80.41;92840.09;5063113;28;20068;-78
2024/02/16 07:25:41;;;;;;;5.90;2.60;;;;;;;10.34;78.61;92835.25;5039774;28;20028;-79
2024/02/16 07:28:08;;;;;;;4.82;2.58;;;;;;;10.91;75.08;92838.88;5063353;28;20082;-79
2024/02/16 07:30:34;;;;;;;4.43;2.30;;;;;;;11.33;71.37;92844.44;5063451;28;20063;-78
2024/02/16 07:33:00;;;;;;;4.75;2.67;;;;;;;11.97;69.21;92842.25;5042500;28;20043;-79
2024/02/16 07:35:25;;;;;;;4.75;2.10;;;;;;;12.42;65.01;92845.22;5063999;28;20132;-79
2024/02/16 07:37:54;;;;;;;4.43;2.45;;;;;;;13.10;61.04;92841.91;5052667;28;20112;-79
2024/02/16 07:40:20;;;;;;;5.35;2.47;;;;;;;13.64;57.48;92839.53;5058468;28;20044;-79
2024/02/16 07:42:46;;;;;;;5.60;2.38;;;;;;;14.08;54.22;92832.78;5056277;28;20033;-80
2024/02/16 07:45:12;;;;;;;4.25;2.40;;;;;;;14.34;52.82;92834.78;5057269;28;20041;-77
2024/02/16 07:47:41;;;;;;;4.25;2.13;;;;;;;14.97;50.24;92838.25;5053099;28;20108;-80
2024/02/16 07:50:07;;;;;;;3.97;1.90;;;;;;;15.82;49.06;92843.31;5060271;28;20063;-79
2024/02/16 07:52:32;;;;;;;3.60;1.83;;;;;;;16.49;45.21;92838.63;5059959;28;20033;-79
2024/02/16 07:54:58;;;;;;;3.75;2.03;;;;;;;17.13;41.91;92833.31;5059403;28;20029;-80
2024/02/16 07:57:24;;;;;;;5.65;2.35;;;;;;;17.09;41.16;92839.56;5049681;28;20113;-79
2024/02/16 07:59:50;;;;;;;4.07;2.17;;;;;;;17.62;39.38;92838.97;5047931;28;20546;-80
2024/02/16 08:02:17;;;;;;;4.22;2.22;;;;;;;18.10;37.16;92840.41;5033998;28;20111;-80
2024/02/16 08:04:47;;;;;;;3.92;2.22;;;;;;;17.69;38.62;92836.59;5052472;28;20530;-81
2024/02/16 08:07:13;;;;;;;3.78;2.28;;;;;;;17.14;40.90;92840.16;5046446;28;20512;-80
2024/02/16 08:09:39;;;;;;;4.18;2.05;;;;;;;17.49;40.07;92837.34;5032272;28;20029;-82
2024/02/16 08:12:06;;;;;;;3.85;2.00;;;;;;;16.75;41.01;92843.84;5053910;28;20033;-80
2024/02/16 08:14:33;;;;;;;5.43;2.10;;;;;;;16.66;40.52;92838.56;5033291;28;20082;-81
2024/02/16 08:16:59;;;;;;;3.90;1.73;;;;;;;16.48;43.84;92842.34;5058588;28;20089;-80
2024/02/16 08:19:33;;;;;;;4.25;1.95;;;;;;;15.39;47.31;92830.78;5035084;28;20111;-78
2024/02/16 08:21:59;;;;;;;4.07;1.65;;;;;;;15.26;48.77;92839.59;5053108;28;20041;-81
2024/02/16 08:24:25;;;;;;;3.65;2.00;;;;;;;15.58;47.18;92843.69;5052018;28;20036;-81
2024/02/16 08:26:51;;;;;;;4.00;1.80;;;;;;;15.73;47.52;92850.44;5047396;28;20040;-81
2024/02/16 08:29:16;;;;;;;2.85;1.73;;;;;;;14.93;47.20;92837.31;5050528;28;20094;-79
2024/02/16 08:31:43;;;;;;;3.10;1.73;;;;;;;14.72;50.50;92837.81;5045013;28;20041;-80
2024/02/16 08:34:10;;;;;;;2.97;1.80;;;;;;;14.44;50.08;92839.06;5013938;28;20037;-80
2024/02/16 08:36:37;;;;;;;4.18;2.00;;;;;;;13.92;52.96;92840.25;4997581;28;20057;-80
2024/02/16 08:39:03;;;;;;;4.28;2.00;;;;;;;12.78;58.03;92836.72;5030936;28;20038;-81
2024/02/16 08:41:30;;;;;;;3.35;2.00;;;;;;;12.52;61.23;92839.03;5031265;28;20515;-81
2024/02/16 08:43:57;;;;;;;3.53;1.92;;;;;;;12.11;62.63;92844.94;5032421;28;20508;-81
2024/02/16 08:46:22;;;;;;;3.50;1.70;;;;;;;11.73;64.30;92848.34;5043363;28;20048;-81
2024/02/16 08:48:49;;;;;;;6.22;2.10;;;;;;;11.83;66.78;92848.19;5052060;28;20066;-81
2024/02/16 08:51:14;;;;;;;3.78;1.70;;;;;;;12.00;65.70;92849.56;5051494;28;20048;-81
2024/02/16 08:53:40;;;;;;;3.80;1.80;;;;;;;12.00;66.96;92846.94;5052081;28;20044;-79
2024/02/16 08:56:11;;;;;;;4.30;2.13;;;;;;;12.03;65.46;92841.91;5052274;28;20112;-81
2024/02/16 08:58:37;;;;;;;4.72;2.10;;;;;;;12.44;64.34;92846.50;5052099;28;20439;-83
2024/02/16 09:01:04;;;;;;;3.90;2.00;;;;;;;12.16;60.94;92848.28;5050692;28;20037;-80
2024/02/16 09:03:38;;;;;;;4.53;1.67;;;;;;;12.21;64.85;92845.56;5034386;28;20067;-81
2024/02/16 09:06:04;;;;;;;3.55;1.75;;;;;;;12.73;58.50;92842.88;5034352;28;20033;-79
2024/02/16 09:08:32;;;;;;;5.55;2.00;;;;;;;12.42;59.98;92853.09;5032241;28;20029;-80
2024/02/16 09:11:05;;;;;;;3.20;1.80;;;;;;;12.14;60.19;92855.66;5051776;28;20041;-79
2024/02/16 09:13:35;;;;;;;;;;;;;;;12.13;64.50;92851.44;5055194;28;20403;-79
2024/02/16 09:16:03;;;;;;;4.55;1.92;;;;;;;12.13;62.37;92861.19;5071999;28;19975;-79
2024/02/16 09:18:29;;;;;;;3.72;1.98;;;;;;;11.91;64.19;92864.38;5069315;28;20080;-79
2024/02/16 09:20:55;;;;;;;4.15;2.22;;;;;;;11.93;64.30;92857.00;5052803;28;20492;-80
2024/02/16 09:23:20;;;;;;;2.97;1.70;;;;;;;12.10;62.51;92862.53;5051422;28;20032;-81
2024/02/16 09:25:46;;;;;;;3.53;1.98;;;;;;;12.22;62.24;92862.84;5052372;28;20033;-80
2024/02/16 09:28:12;;;;;;;3.78;2.00;;;;;;;12.07;63.14;92871.00;5051342;28;20086;-80
2024/02/16 09:30:38;;;;;;;4.65;2.10;;;;;;;11.57;67.40;92867.97;5052087;28;20048;-81
2024/02/16 09:33:04;;;;;;;3.97;2.25;;;;;;;11.06;69.25;92865.97;5052684;28;20367;-80
2024/02/16 09:35:31;;;;;;;5.18;2.28;;;;;;;10.39;71.00;92869.22;5052443;28;20038;-80
2024/02/16 09:37:56;;;;;;;6.20;2.30;;;;;;;9.91;72.69;92874.28;5051325;28;20044;-80
2024/02/16 09:40:22;;;;;;;5.22;2.10;;;;;;;9.68;76.12;92873.91;5050642;28;20059;-80
2024/02/16 09:42:49;;;;;;;4.72;2.17;;;;;;;9.68;77.89;92870.47;5050807;28;20492;-80
2024/02/16 09:45:15;;;;;;;4.40;2.20;;;;;;;9.84;76.40;92871.97;5054850;28;20033;-80
2024/02/16 09:47:47;;;;;;;4.55;2.17;;;;;;;9.73;76.37;92879.09;5053400;28;20037;-80
2024/02/16 09:50:13;;;;;;;3.80;1.80;;;;;;;9.81;74.24;92877.72;5056483;28;20033;-79
2024/02/16 09:52:40;;;;;;;3.33;1.70;;;;;;;9.71;72.13;92875.97;5054884;28;20036;-81
2024/02/16 09:55:11;;;;;;;3.30;1.63;;;;;;;9.60;71.15;92874.47;5054566;28;20037;-80
2024/02/16 09:57:37;;;;;;;2.92;1.50;;;;;;;9.46;73.58;92879.50;5034466;28;20060;-80
2024/02/16 10:00:06;;;;;;;3.38;1.75;;;;;;;9.56;72.49;92868.22;5062454;28;20041;-80
2024/02/16 10:02:44;;;;;;;2.75;1.70;;;;;;;9.48;73.91;92879.22;5050912;28;20094;-79
2024/02/16 10:05:15;;;;;;;2.83;1.70;;;;;;;9.52;72.59;92882.84;5070315;28;20047;-80
2024/02/16 10:07:41;;;;;;;3.58;1.90;;;;;;;9.57;71.50;92880.25;5057126;28;20068;-80
2024/02/16 10:10:21;;;;;;;2.70;1.60;;;;;;;9.41;70.37;92871.66;5061034;28;20028;-79
2024/02/16 10:12:46;;;;;;;2.75;1.70;;;;;;;9.27;71.05;92891.59;5059492;28;20073;-77
2024/02/16 10:15:12;;;;;;;4.28;1.63;;;;;;;9.26;71.98;92896.03;5051083;28;20048;-79
2024/02/16 10:17:37;;;;;;;3.75;1.83;;;;;;;9.48;73.42;92893.09;5039779;28;20024;-77
2024/02/16 10:20:06;;;;;;;4.28;2.13;;;;;;;9.58;75.32;92892.25;5043623;28;20032;-79
2024/02/16 10:22:32;;;;;;;6.57;2.40;;;;;;;9.61;77.81;92891.69;5055604;28;20072;-80
2024/02/16 10:25:12;;;;;;;3.85;2.10;;;;;;;9.73;76.37;92889.56;5054619;28;20083;-77
2024/02/16 10:27:38;;;;;;;4.88;2.13;;;;;;;9.82;77.83;92884.53;5050017;28;20036;-81
2024/02/16 10:30:09;;;;;;;4.47;2.35;;;;;;;9.97;76.81;92891.47;5049915;28;20485;-81
2024/02/16 10:32:38;;;;;;;5.43;2.67;;;;;;;9.85;76.05;92891.06;5049808;28;20041;-80
2024/02/16 10:35:08;;;;;;;5.20;2.65;;;;;;;9.79;78.30;92896.31;5060720;28;20090;-78
2024/02/16 10:37:34;;;;;;;6.32;2.55;;;;;;;9.78;81.65;92897.34;5064090;28;20277;-80
2024/02/16 10:40:01;;;;;;;5.18;2.38;;;;;;;9.87;78.79;92889.72;5044675;28;20491;-79
2024/02/16 10:42:31;;;;;;;5.38;2.40;;;;;;;9.97;76.05;92894.09;5065978;28;20099;-77
2024/02/16 10:44:57;;;;;;;4.70;2.80;;;;;;;9.83;75.85;92887.94;5033910;28;20382;-79
2024/02/16 10:47:23;;;;;;;4.78;2.33;;;;;;;10.01;80.92;92888.06;5018375;28;20051;-81
2024/02/16 10:49:48;;;;;;;5.35;2.42;;;;;;;9.95;80.66;92896.19;5047394;28;20037;-79
2024/02/16 10:52:16;;;;;;;5.28;2.45;;;;;;;9.69;84.24;92898.97;5049391;28;20036;-80
2024/02/16 10:54:42;;;;;;;4.43;2.40;;;;;;;9.62;85.76;92897.72;5058512;28;20032;-77
2024/02/16 10:57:10;;;;;;;6.93;2.45;;;;;;;9.75;81.84;92891.91;5073307;28;20048;-79
2024/02/16 10:59:45;;;;;;;4.85;2.50;;;;;;;9.62;81.70;92897.72;5074332;28;20068;-79
2024/02/16 11:02:11;;;;;;;5.25;2.40;;;;;;;9.55;80.89;92893.56;5055605;28;20427;-79
2024/02/16 11:04:39;;;;;;;4.55;2.45;;;;;;;9.71;78.18;92893.50;5060211;28;20685;-79
2024/02/16 11:07:12;;;;;;;4.60;2.50;;;;;;;9.65;79.07;92886.72;5036735;28;20044;-76
2024/02/16 11:09:39;;;;;;;4.40;2.40;;;;;;;9.48;83.54;92898.31;5073598;28;20078;-79
2024/02/16 11:12:12;;;;;;;4.80;2.35;;;;;;;9.44;83.92;92889.44;5073092;28;20081;-80
2024/02/16 11:14:38;;;;;;;4.78;2.53;;;;;;;9.50;85.06;92890.19;5073299;28;20066;-79
2024/02/16 11:17:09;;;;;;;4.15;2.40;;;;;;;9.56;84.88;92894.34;5055430;28;20029;-80
2024/02/16 11:19:35;;;;;;;8.32;2.42;;;;;;;9.59;83.35;92881.53;5072931;28;20207;-80
2024/02/16 11:22:08;;;;;;;6.20;2.50;;;;;;;9.74;82.94;92880.66;5057322;28;20073;-78
2024/02/16 11:24:43;;;;;;;4.43;2.60;;;;;;;9.74;81.24;92878.03;5054244;28;20040;-79
2024/02/16 11:27:10;;;;;;;4.72;2.58;;;;;;;9.73;79.06;92871.25;5053822;28;20075;-79
2024/02/16 11:29:38;;;;;;;7.43;2.60;;;;;;;9.60;81.21;92874.47;5028073;28;20025;-77
2024/02/16 11:32:05;;;;;;;4.45;2.28;;;;;;;9.60;83.08;92879.69;5034034;28;20039;-79